Aérodrome :
LOGIN :

S'inscrire | Disclaimer

   EN    FR    IT 

 










Légende :    VFR   VFR Marginal   IFR   IFR Intensif   IFR Très Intensif
Visi : 
Plafond : 
>= 8 km
>= 3000ft
5 à 8 km
1000 à 3000 ft
1500m à 5 km
500 à 1000 ft
800 à 1500m
200 à 500 ft
< 800m
< 200 ft
Symboles :   Orages  Brouillard  Fortes neiges  Fortes précipitations  Vent > 20 kt
SIGMETs :   Divers  Orages  Givrage  Turbulence  Onde Orograph.  Cendres Volcan.







- Altitude de l'aérodrome : 38 ft
- Code IATA : BOH
- Voir les cartes d'approche


EGHH - Bournemouth

DERNIER METAR :
  • 280720Z 24004KT 9999 FEW040 M00/M00 Q0988

METARs EXPIRÉS :
  • 280650Z 00000KT 9999 MIFG FEW040 M01/M02 Q0987
  • 280620Z 34001KT 9999 MIFG NSC M01/M01 Q0987
  • 280550Z 01003KT CAVOK M01/M01 Q0986

TAF TAF EGHH
Valide du 28 à 06h jusqu'au 28 à 15h UTC


280645Z 2806/2815 VRB03KT 9999 FEW020
BECMG 2808/2811 28010KT
TEMPO 2814/2815 5000 SHRA BKN010
PROB30
TEMPO 2814/2815 3000 +SHRA
ATIS : +44 1202 364 151
Météo : +44 1202 364 158 (TAF)
Pas de NOTAMs connus pour ce terrain.



MET'MAP, la Météo Aéronautique d'un coup d'oeil ! - Copyright ORBIFLY Décembre 2007 - Disclaimer

ORBIFLY MET'MAP TEAM :

Programmation & Développement : Alexandra Zaïnal
Conception & Développement : Baudouin d'Aumeries
Co-Programmation & Développement : Marc-Olivier Méhu
Soutien technique & logistique : Manuel Goepfert

Contact : metmap@orbifly.com




SOURCES & CREDITS :

   NOAA